Flugplatz Hetzleser Berg

Für EDQX sind keine METAR/TAF Berichte vorhanden.
Es werden die Flugwettermeldungen vom Flugplatz Nuremberg in 17 km Entfernung angezeigt.

Bericht für EDDN

vom 26.11. um 11:20 UTC

Wind 5 kt aus 270°

Sichtweite 10 km oder mehr

bedeckt in 900 ft

Temperatur 6.0°C

Taupunkt 5.0°C

Luftfeuchtigkeit 93%

Luftdruck 1031 hPa

EDDN 261120Z AUTO 27005KT 240V310 9999 OVC009 06/05 Q1031 BECMG BKN010

Prognose für EDDN

vom 26.11. um 11:00 UTC

Zwischen 12:00 UTC und 17:00 UTC

Wind 5 kt aus 290°

Sichtweite 10 km oder mehr

aufgebrochene Bewölkung in 1000 ft


Zwischen 12:00 UTC und 17:00 UTC zeitweise

aufgelockert bewölkt in 1200 ft


Zwischen 17:00 und 19:00 UTC übergehend zu

Wind 5 kt aus 290°

Sichtweite 10 km oder mehr

aufgebrochene Bewölkung in 800 ft


Am 27.11. zwischen 04:00 UTC und 10:00 UTC zeitweise mit einer Wahrscheinlichkeit von 30%

aufgebrochene Bewölkung in 400 ft


Am 27.11. zwischen 10:00 und 12:00 UTC übergehend zu

Wind 5 kt aus 290°

Sichtweite 10 km oder mehr

aufgebrochene Bewölkung in 1200 ft

TAF EDDN 261100Z 2612/2712 29005KT 9999 BKN010 TEMPO 2612/2617 SCT012 BECMG 2617/2619 BKN008 PROB30 TEMPO 2704/2710 BKN004 BECMG 2710/2712 BKN012
Impressum